sensor_id;sensor_type;location;lat;lon;timestamp;pressure;altitude;pressure_sealevel;temperature;humidity
19751;BME280;4663;49.120;9.730;2023-05-22T00:00:06;97680.88;;;15.79;89.84
19751;BME280;4663;49.120;9.730;2023-05-22T00:02:33;97682.50;;;15.66;91.40
19751;BME280;4663;49.120;9.730;2023-05-22T00:05:05;97684.34;;;15.59;91.65
19751;BME280;4663;49.120;9.730;2023-05-22T00:07:31;97680.22;;;15.70;91.78
19751;BME280;4663;49.120;9.730;2023-05-22T00:09:56;97677.31;;;15.72;91.49
19751;BME280;4663;49.120;9.730;2023-05-22T00:12:21;97672.47;;;15.60;91.33
19751;BME280;4663;49.120;9.730;2023-05-22T00:14:47;97678.34;;;15.64;90.59
19751;BME280;4663;49.120;9.730;2023-05-22T00:17:12;97665.03;;;15.62;90.35
19751;BME280;4663;49.120;9.730;2023-05-22T00:19:39;97671.22;;;15.56;90.42
19751;BME280;4663;49.120;9.730;2023-05-22T00:22:04;97671.41;;;15.48;91.54
19751;BME280;4663;49.120;9.730;2023-05-22T00:24:30;97664.88;;;15.35;91.62
19751;BME280;4663;49.120;9.730;2023-05-22T00:26:56;97663.59;;;15.24;91.40
19751;BME280;4663;49.120;9.730;2023-05-22T00:29:22;97670.75;;;15.39;91.18
19751;BME280;4663;49.120;9.730;2023-05-22T00:31:47;97667.81;;;15.40;90.51
19751;BME280;4663;49.120;9.730;2023-05-22T00:34:13;97668.03;;;15.39;90.32
19751;BME280;4663;49.120;9.730;2023-05-22T00:36:38;97665.28;;;15.32;90.87
19751;BME280;4663;49.120;9.730;2023-05-22T00:39:03;97656.56;;;15.30;90.85
19751;BME280;4663;49.120;9.730;2023-05-22T00:41:30;97668.63;;;15.34;90.79
19751;BME280;4663;49.120;9.730;2023-05-22T00:43:58;97661.94;;;15.23;90.29
19751;BME280;4663;49.120;9.730;2023-05-22T00:46:24;97666.91;;;15.26;90.32
19751;BME280;4663;49.120;9.730;2023-05-22T00:48:49;97667.25;;;15.10;91.39
19751;BME280;4663;49.120;9.730;2023-05-22T00:51:17;97667.94;;;14.97;91.67
19751;BME280;4663;49.120;9.730;2023-05-22T00:53:45;97663.44;;;15.04;91.43
19751;BME280;4663;49.120;9.730;2023-05-22T00:56:11;97668.44;;;15.07;91.17
19751;BME280;4663;49.120;9.730;2023-05-22T00:58:37;97656.38;;;15.03;91.09
19751;BME280;4663;49.120;9.730;2023-05-22T01:01:02;97658.19;;;14.96;91.39
19751;BME280;4663;49.120;9.730;2023-05-22T01:03:29;97659.31;;;15.08;90.66
19751;BME280;4663;49.120;9.730;2023-05-22T01:05:56;97660.59;;;15.12;90.54
19751;BME280;4663;49.120;9.730;2023-05-22T01:08:21;97659.41;;;14.93;91.63
19751;BME280;4663;49.120;9.730;2023-05-22T01:10:53;97662.41;;;14.76;91.97
19751;BME280;4663;49.120;9.730;2023-05-22T01:13:45;97667.44;;;14.80;91.85
19751;BME280;4663;49.120;9.730;2023-05-22T01:16:38;97665.31;;;14.75;91.93
19751;BME280;4663;49.120;9.730;2023-05-22T01:31:01;97667.81;;;14.76;91.45
19751;BME280;4663;49.120;9.730;2023-05-22T01:33:32;97663.28;;;14.55;91.98
19751;BME280;4663;49.120;9.730;2023-05-22T01:36:00;97659.16;;;14.59;92.31
19751;BME280;4663;49.120;9.730;2023-05-22T01:38:27;97663.28;;;14.55;92.65
19751;BME280;4663;49.120;9.730;2023-05-22T01:40:53;97666.75;;;14.49;93.16
19751;BME280;4663;49.120;9.730;2023-05-22T01:43:19;97666.88;;;14.41;93.03
19751;BME280;4663;49.120;9.730;2023-05-22T01:45:45;97665.41;;;14.38;92.61
19751;BME280;4663;49.120;9.730;2023-05-22T01:48:11;97667.34;;;14.44;92.80
19751;BME280;4663;49.120;9.730;2023-05-22T01:50:37;97663.00;;;14.43;91.55
19751;BME280;4663;49.120;9.730;2023-05-22T01:53:29;97670.00;;;14.37;91.52
19751;BME280;4663;49.120;9.730;2023-05-22T01:56:15;97683.25;;;14.39;91.58
19751;BME280;4663;49.120;9.730;2023-05-22T01:58:57;97666.03;;;14.33;92.18
19751;BME280;4663;49.120;9.730;2023-05-22T02:01:26;97682.19;;;14.11;92.78
19751;BME280;4663;49.120;9.730;2023-05-22T02:03:55;97682.63;;;14.15;92.29
19751;BME280;4663;49.120;9.730;2023-05-22T02:06:22;97681.44;;;14.18;91.47
19751;BME280;4663;49.120;9.730;2023-05-22T02:08:50;97675.50;;;14.29;91.20
19751;BME280;4663;49.120;9.730;2023-05-22T02:11:19;97683.22;;;14.32;90.66
19751;BME280;4663;49.120;9.730;2023-05-22T02:13:46;97676.34;;;14.30;90.76
19751;BME280;4663;49.120;9.730;2023-05-22T02:16:11;97682.31;;;14.25;91.50
19751;BME280;4663;49.120;9.730;2023-05-22T02:18:38;97686.81;;;14.18;90.86
19751;BME280;4663;49.120;9.730;2023-05-22T02:21:05;97690.34;;;14.18;91.82
19751;BME280;4663;49.120;9.730;2023-05-22T02:23:32;97687.31;;;14.06;91.58
19751;BME280;4663;49.120;9.730;2023-05-22T02:25:58;97683.84;;;14.12;92.65
19751;BME280;4663;49.120;9.730;2023-05-22T02:28:23;97686.28;;;14.07;91.89
19751;BME280;4663;49.120;9.730;2023-05-22T02:30:49;97683.81;;;13.91;92.04
19751;BME280;4663;49.120;9.730;2023-05-22T02:33:14;97690.59;;;13.86;92.52
19751;BME280;4663;49.120;9.730;2023-05-22T02:35:42;97680.31;;;13.97;92.20
19751;BME280;4663;49.120;9.730;2023-05-22T02:38:07;97690.06;;;13.76;92.37
19751;BME280;4663;49.120;9.730;2023-05-22T02:40:33;97690.16;;;13.68;92.91
19751;BME280;4663;49.120;9.730;2023-05-22T02:42:58;97685.22;;;13.86;92.45
19751;BME280;4663;49.120;9.730;2023-05-22T02:45:24;97686.03;;;13.87;92.08
19751;BME280;4663;49.120;9.730;2023-05-22T02:47:49;97678.34;;;13.84;91.54
19751;BME280;4663;49.120;9.730;2023-05-22T02:50:14;97680.81;;;13.85;90.91
19751;BME280;4663;49.120;9.730;2023-05-22T02:52:40;97682.03;;;13.83;91.00
19751;BME280;4663;49.120;9.730;2023-05-22T02:55:06;97683.81;;;13.91;90.74
19751;BME280;4663;49.120;9.730;2023-05-22T02:57:32;97695.44;;;13.76;90.94
19751;BME280;4663;49.120;9.730;2023-05-22T02:59:57;97699.97;;;13.75;91.88
19751;BME280;4663;49.120;9.730;2023-05-22T03:02:24;97694.25;;;13.64;91.05
19751;BME280;4663;49.120;9.730;2023-05-22T03:04:52;97696.28;;;13.77;90.88
19751;BME280;4663;49.120;9.730;2023-05-22T03:07:18;97696.41;;;13.68;90.94
19751;BME280;4663;49.120;9.730;2023-05-22T03:09:45;97693.22;;;13.65;90.55
19751;BME280;4663;49.120;9.730;2023-05-22T03:12:11;97694.81;;;13.59;90.92
19751;BME280;4663;49.120;9.730;2023-05-22T03:14:36;97693.88;;;13.52;91.47
19751;BME280;4663;49.120;9.730;2023-05-22T03:17:01;97698.19;;;13.46;91.70
19751;BME280;4663;49.120;9.730;2023-05-22T03:19:27;97691.41;;;13.50;91.41
19751;BME280;4663;49.120;9.730;2023-05-22T03:21:53;97686.66;;;13.37;91.28
19751;BME280;4663;49.120;9.730;2023-05-22T03:24:18;97694.56;;;13.39;91.90
19751;BME280;4663;49.120;9.730;2023-05-22T03:26:43;97692.81;;;13.46;91.54
19751;BME280;4663;49.120;9.730;2023-05-22T03:29:09;97690.94;;;13.31;91.95
19751;BME280;4663;49.120;9.730;2023-05-22T03:31:34;97700.94;;;13.38;92.26
19751;BME280;4663;49.120;9.730;2023-05-22T03:34:00;97700.94;;;13.38;92.59
19751;BME280;4663;49.120;9.730;2023-05-22T03:36:27;97705.34;;;13.39;91.99
19751;BME280;4663;49.120;9.730;2023-05-22T03:38:52;97707.19;;;13.38;92.14
19751;BME280;4663;49.120;9.730;2023-05-22T03:41:18;97703.09;;;13.27;93.10
19751;BME280;4663;49.120;9.730;2023-05-22T03:43:44;97704.69;;;13.36;92.82
19751;BME280;4663;49.120;9.730;2023-05-22T03:46:10;97694.47;;;13.32;91.67
19751;BME280;4663;49.120;9.730;2023-05-22T03:48:35;97694.75;;;13.22;92.23
19751;BME280;4663;49.120;9.730;2023-05-22T03:51:01;97704.03;;;13.34;91.87
19751;BME280;4663;49.120;9.730;2023-05-22T03:53:26;97705.31;;;13.23;92.12
19751;BME280;4663;49.120;9.730;2023-05-22T03:55:52;97702.06;;;13.28;92.12
19751;BME280;4663;49.120;9.730;2023-05-22T03:58:17;97713.78;;;13.35;93.16
19751;BME280;4663;49.120;9.730;2023-05-22T04:00:42;97709.97;;;13.45;92.68
19751;BME280;4663;49.120;9.730;2023-05-22T04:03:08;97705.53;;;13.37;91.86
19751;BME280;4663;49.120;9.730;2023-05-22T04:05:44;97715.66;;;13.50;91.87
19751;BME280;4663;49.120;9.730;2023-05-22T04:08:10;97714.19;;;13.84;91.64
19751;BME280;4663;49.120;9.730;2023-05-22T04:10:36;97715.19;;;14.13;90.36
19751;BME280;4663;49.120;9.730;2023-05-22T04:13:03;97700.97;;;14.42;89.08
19751;BME280;4663;49.120;9.730;2023-05-22T04:15:28;97706.78;;;14.67;88.10
19751;BME280;4663;49.120;9.730;2023-05-22T04:17:53;97698.56;;;14.75;87.34
19751;BME280;4663;49.120;9.730;2023-05-22T04:20:19;97700.94;;;14.63;86.77
19751;BME280;4663;49.120;9.730;2023-05-22T04:22:46;97702.44;;;14.44;86.39
19751;BME280;4663;49.120;9.730;2023-05-22T04:25:13;97703.50;;;14.28;87.88
19751;BME280;4663;49.120;9.730;2023-05-22T04:27:38;97700.38;;;14.24;87.53
19751;BME280;4663;49.120;9.730;2023-05-22T04:30:05;97717.63;;;13.93;88.21
19751;BME280;4663;49.120;9.730;2023-05-22T04:32:31;97715.47;;;14.04;89.75
19751;BME280;4663;49.120;9.730;2023-05-22T04:34:56;97715.53;;;14.25;88.32
19751;BME280;4663;49.120;9.730;2023-05-22T04:37:24;97717.72;;;14.37;88.18
19751;BME280;4663;49.120;9.730;2023-05-22T04:39:52;97708.84;;;14.65;87.34
19751;BME280;4663;49.120;9.730;2023-05-22T04:42:22;97720.78;;;14.77;87.03
19751;BME280;4663;49.120;9.730;2023-05-22T04:44:49;97715.91;;;15.16;86.04
19751;BME280;4663;49.120;9.730;2023-05-22T04:47:17;97717.75;;;15.45;86.08
19751;BME280;4663;49.120;9.730;2023-05-22T04:49:43;97728.38;;;15.88;85.16
19751;BME280;4663;49.120;9.730;2023-05-22T04:52:10;97717.72;;;16.42;83.26
19751;BME280;4663;49.120;9.730;2023-05-22T04:54:36;97718.16;;;16.46;83.13
19751;BME280;4663;49.120;9.730;2023-05-22T04:57:02;97730.06;;;16.92;81.94
19751;BME280;4663;49.120;9.730;2023-05-22T04:59:30;97722.56;;;17.01;79.98
19751;BME280;4663;49.120;9.730;2023-05-22T05:01:57;97725.50;;;17.00;81.72
19751;BME280;4663;49.120;9.730;2023-05-22T05:04:23;97722.34;;;17.16;80.42
19751;BME280;4663;49.120;9.730;2023-05-22T05:06:48;97732.91;;;16.43;83.10
19751;BME280;4663;49.120;9.730;2023-05-22T05:09:13;97729.47;;;17.04;81.41
19751;BME280;4663;49.120;9.730;2023-05-22T05:11:39;97714.81;;;16.91;80.87
19751;BME280;4663;49.120;9.730;2023-05-22T05:14:04;97721.94;;;17.26;80.28
19751;BME280;4663;49.120;9.730;2023-05-22T05:16:30;97715.28;;;17.02;79.76
19751;BME280;4663;49.120;9.730;2023-05-22T05:18:55;97711.91;;;17.20;80.75
19751;BME280;4663;49.120;9.730;2023-05-22T05:21:21;97710.66;;;17.22;79.67
19751;BME280;4663;49.120;9.730;2023-05-22T05:23:47;97711.47;;;17.43;80.20
19751;BME280;4663;49.120;9.730;2023-05-22T05:26:12;97718.13;;;17.47;81.18
19751;BME280;4663;49.120;9.730;2023-05-22T05:28:38;97713.91;;;17.65;81.04
19751;BME280;4663;49.120;9.730;2023-05-22T05:31:03;97714.69;;;17.79;80.10
19751;BME280;4663;49.120;9.730;2023-05-22T05:33:29;97719.09;;;17.73;79.64
19751;BME280;4663;49.120;9.730;2023-05-22T05:35:55;97711.00;;;18.12;79.83
19751;BME280;4663;49.120;9.730;2023-05-22T05:38:21;97704.13;;;18.10;78.56
19751;BME280;4663;49.120;9.730;2023-05-22T05:40:46;97710.66;;;16.95;80.72
19751;BME280;4663;49.120;9.730;2023-05-22T05:43:12;97711.50;;;16.62;83.17
19751;BME280;4663;49.120;9.730;2023-05-22T05:45:41;97707.72;;;17.38;82.40
19751;BME280;4663;49.120;9.730;2023-05-22T05:48:07;97710.75;;;17.68;81.47
19751;BME280;4663;49.120;9.730;2023-05-22T05:50:33;97712.69;;;18.07;81.62
19751;BME280;4663;49.120;9.730;2023-05-22T05:52:58;97707.94;;;17.36;80.55
19751;BME280;4663;49.120;9.730;2023-05-22T05:55:24;97712.06;;;17.52;80.95
19751;BME280;4663;49.120;9.730;2023-05-22T05:57:49;97724.34;;;18.53;83.25
19751;BME280;4663;49.120;9.730;2023-05-22T06:00:16;97720.97;;;19.60;78.79
19751;BME280;4663;49.120;9.730;2023-05-22T06:02:42;97712.41;;;19.12;77.38
19751;BME280;4663;49.120;9.730;2023-05-22T06:05:08;97727.34;;;18.38;77.32
19751;BME280;4663;49.120;9.730;2023-05-22T06:07:34;97734.00;;;18.42;79.94
19751;BME280;4663;49.120;9.730;2023-05-22T06:10:04;97729.25;;;18.70;78.72
19751;BME280;4663;49.120;9.730;2023-05-22T06:12:29;97727.16;;;18.97;76.99
19751;BME280;4663;49.120;9.730;2023-05-22T06:14:55;97730.91;;;19.47;79.75
19751;BME280;4663;49.120;9.730;2023-05-22T06:17:20;97722.53;;;19.86;76.49
19751;BME280;4663;49.120;9.730;2023-05-22T06:19:46;97737.88;;;19.81;76.03
19751;BME280;4663;49.120;9.730;2023-05-22T06:22:11;97732.88;;;20.46;75.34
19751;BME280;4663;49.120;9.730;2023-05-22T06:24:37;97730.09;;;20.76;74.46
19751;BME280;4663;49.120;9.730;2023-05-22T06:27:02;97723.94;;;20.69;73.94
19751;BME280;4663;49.120;9.730;2023-05-22T06:29:27;97726.50;;;20.52;73.67
19751;BME280;4663;49.120;9.730;2023-05-22T06:31:53;97734.34;;;20.60;74.44
19751;BME280;4663;49.120;9.730;2023-05-22T06:34:21;97721.78;;;21.26;71.51
19751;BME280;4663;49.120;9.730;2023-05-22T06:36:46;97729.22;;;21.18;72.64
19751;BME280;4663;49.120;9.730;2023-05-22T06:39:14;97721.72;;;21.74;71.91
19751;BME280;4663;49.120;9.730;2023-05-22T06:41:40;97729.94;;;21.62;74.83
19751;BME280;4663;49.120;9.730;2023-05-22T06:44:05;97720.53;;;21.81;71.94
19751;BME280;4663;49.120;9.730;2023-05-22T06:46:31;97717.47;;;21.54;71.19
19751;BME280;4663;49.120;9.730;2023-05-22T06:48:56;97723.25;;;21.93;70.49
19751;BME280;4663;49.120;9.730;2023-05-22T06:51:21;97720.88;;;22.26;70.22
19751;BME280;4663;49.120;9.730;2023-05-22T06:53:48;97724.06;;;22.35;69.80
19751;BME280;4663;49.120;9.730;2023-05-22T06:56:13;97719.97;;;23.35;68.07
19751;BME280;4663;49.120;9.730;2023-05-22T06:58:39;97719.16;;;23.35;66.81
19751;BME280;4663;49.120;9.730;2023-05-22T07:01:05;97723.72;;;23.29;68.44
19751;BME280;4663;49.120;9.730;2023-05-22T07:03:31;97716.91;;;24.16;66.35
19751;BME280;4663;49.120;9.730;2023-05-22T07:05:57;97729.28;;;23.34;67.26
19751;BME280;4663;49.120;9.730;2023-05-22T07:08:24;97727.28;;;24.36;66.43
19751;BME280;4663;49.120;9.730;2023-05-22T07:10:50;97708.31;;;23.85;64.65
19751;BME280;4663;49.120;9.730;2023-05-22T07:13:16;97707.84;;;24.65;62.85
19751;BME280;4663;49.120;9.730;2023-05-22T07:15:41;97721.94;;;24.52;62.79
19751;BME280;4663;49.120;9.730;2023-05-22T07:18:07;97722.78;;;25.56;63.25
19751;BME280;4663;49.120;9.730;2023-05-22T07:20:34;97735.03;;;25.86;62.98
19751;BME280;4663;49.120;9.730;2023-05-22T07:22:59;97722.91;;;24.96;62.67
19751;BME280;4663;49.120;9.730;2023-05-22T07:25:25;97731.75;;;24.20;65.56
19751;BME280;4663;49.120;9.730;2023-05-22T07:27:50;97715.47;;;24.36;64.45
19751;BME280;4663;49.120;9.730;2023-05-22T07:30:16;97731.78;;;25.08;64.92
19751;BME280;4663;49.120;9.730;2023-05-22T07:32:41;97718.81;;;25.90;64.10
19751;BME280;4663;49.120;9.730;2023-05-22T07:35:07;97718.66;;;26.12;63.22
19751;BME280;4663;49.120;9.730;2023-05-22T07:37:35;97712.91;;;25.55;60.77
19751;BME280;4663;49.120;9.730;2023-05-22T07:40:03;97713.84;;;25.87;60.99
19751;BME280;4663;49.120;9.730;2023-05-22T07:42:29;97697.78;;;25.14;59.54
19751;BME280;4663;49.120;9.730;2023-05-22T07:44:55;97689.53;;;25.09;59.64
19751;BME280;4663;49.120;9.730;2023-05-22T07:47:20;97716.19;;;25.57;61.98
19751;BME280;4663;49.120;9.730;2023-05-22T07:49:46;97696.97;;;25.57;59.19
19751;BME280;4663;49.120;9.730;2023-05-22T07:52:11;97736.25;;;25.63;64.56
19751;BME280;4663;49.120;9.730;2023-05-22T07:54:36;97714.38;;;26.79;61.27
19751;BME280;4663;49.120;9.730;2023-05-22T07:57:02;97712.81;;;25.98;61.45
19751;BME280;4663;49.120;9.730;2023-05-22T07:59:27;97723.72;;;26.57;61.25
19751;BME280;4663;49.120;9.730;2023-05-22T08:01:53;97715.69;;;26.50;60.34
19751;BME280;4663;49.120;9.730;2023-05-22T08:04:18;97726.88;;;26.12;63.03
19751;BME280;4663;49.120;9.730;2023-05-22T08:06:43;97721.16;;;26.29;61.61
19751;BME280;4663;49.120;9.730;2023-05-22T08:09:09;97735.78;;;27.65;62.68
19751;BME280;4663;49.120;9.730;2023-05-22T08:11:34;97698.03;;;28.37;57.73
19751;BME280;4663;49.120;9.730;2023-05-22T08:14:01;97719.25;;;28.36;58.96
19751;BME280;4663;49.120;9.730;2023-05-22T08:16:27;97730.44;;;29.25;61.98
19751;BME280;4663;49.120;9.730;2023-05-22T08:18:52;97715.22;;;28.13;59.92
19751;BME280;4663;49.120;9.730;2023-05-22T08:21:17;97706.06;;;27.52;59.22
19751;BME280;4663;49.120;9.730;2023-05-22T08:23:43;97708.88;;;27.26;59.56
19751;BME280;4663;49.120;9.730;2023-05-22T08:26:08;97730.53;;;27.74;61.92
19751;BME280;4663;49.120;9.730;2023-05-22T08:28:34;97716.22;;;27.61;60.79
19751;BME280;4663;49.120;9.730;2023-05-22T08:30:59;97712.75;;;26.99;60.30
19751;BME280;4663;49.120;9.730;2023-05-22T08:33:25;97719.31;;;27.39;61.48
19751;BME280;4663;49.120;9.730;2023-05-22T08:35:50;97708.88;;;27.05;61.06
19751;BME280;4663;49.120;9.730;2023-05-22T08:38:16;97704.75;;;27.18;60.75
19751;BME280;4663;49.120;9.730;2023-05-22T08:40:46;97707.66;;;26.17;62.92
19751;BME280;4663;49.120;9.730;2023-05-22T08:43:11;97708.25;;;26.40;61.91
19751;BME280;4663;49.120;9.730;2023-05-22T08:45:37;97701.69;;;26.52;61.70
19751;BME280;4663;49.120;9.730;2023-05-22T08:48:11;97718.41;;;26.24;63.48
19751;BME280;4663;49.120;9.730;2023-05-22T08:50:40;97709.41;;;27.12;62.10
19751;BME280;4663;49.120;9.730;2023-05-22T08:53:07;97710.72;;;27.56;61.10
19751;BME280;4663;49.120;9.730;2023-05-22T08:55:35;97699.25;;;27.13;60.75
19751;BME280;4663;49.120;9.730;2023-05-22T08:58:01;97700.84;;;26.51;61.29
19751;BME280;4663;49.120;9.730;2023-05-22T09:00:28;97704.91;;;26.17;63.37
19751;BME280;4663;49.120;9.730;2023-05-22T09:02:54;97701.44;;;26.74;62.20
19751;BME280;4663;49.120;9.730;2023-05-22T09:05:20;97711.59;;;26.53;63.34
19751;BME280;4663;49.120;9.730;2023-05-22T09:07:45;97708.31;;;26.77;62.55
19751;BME280;4663;49.120;9.730;2023-05-22T09:10:12;97709.31;;;27.64;63.35
19751;BME280;4663;49.120;9.730;2023-05-22T09:15:33;97695.13;;;27.10;60.55
19751;BME280;4663;49.120;9.730;2023-05-22T09:17:59;97690.66;;;27.51;59.56
19751;BME280;4663;49.120;9.730;2023-05-22T09:20:25;97688.69;;;27.51;59.55
19751;BME280;4663;49.120;9.730;2023-05-22T09:22:50;97692.13;;;28.49;59.65
19751;BME280;4663;49.120;9.730;2023-05-22T09:25:22;97682.56;;;28.41;57.92
19751;BME280;4663;49.120;9.730;2023-05-22T09:27:47;97672.13;;;28.28;57.22
19751;BME280;4663;49.120;9.730;2023-05-22T09:30:17;97682.06;;;27.63;58.34
19751;BME280;4663;49.120;9.730;2023-05-22T09:32:43;97687.63;;;27.47;59.36
19751;BME280;4663;49.120;9.730;2023-05-22T09:35:09;97684.88;;;27.42;58.52
19751;BME280;4663;49.120;9.730;2023-05-22T09:37:35;97682.88;;;27.68;58.52
19751;BME280;4663;49.120;9.730;2023-05-22T09:40:05;97699.22;;;29.25;58.34
19751;BME280;4663;49.120;9.730;2023-05-22T09:42:34;97685.78;;;27.98;57.51
19751;BME280;4663;49.120;9.730;2023-05-22T09:45:04;97670.59;;;27.40;56.13
19751;BME280;4663;49.120;9.730;2023-05-22T09:47:30;97679.59;;;27.61;57.41
19751;BME280;4663;49.120;9.730;2023-05-22T09:49:56;97673.38;;;28.00;56.44
19751;BME280;4663;49.120;9.730;2023-05-22T09:52:23;97692.91;;;28.55;57.85
19751;BME280;4663;49.120;9.730;2023-05-22T09:54:54;97680.75;;;28.10;57.05
19751;BME280;4663;49.120;9.730;2023-05-22T09:57:23;97660.31;;;28.22;55.12
19751;BME280;4663;49.120;9.730;2023-05-22T09:59:51;97683.34;;;28.82;55.88
19751;BME280;4663;49.120;9.730;2023-05-22T10:02:20;97687.72;;;28.83;55.71
19751;BME280;4663;49.120;9.730;2023-05-22T10:04:48;97679.19;;;28.49;56.12
19751;BME280;4663;49.120;9.730;2023-05-22T10:07:18;97671.22;;;27.92;55.61
19751;BME280;4663;49.120;9.730;2023-05-22T10:09:51;97671.16;;;28.03;55.64
19751;BME280;4663;49.120;9.730;2023-05-22T10:12:20;97678.00;;;28.56;56.53
19751;BME280;4663;49.120;9.730;2023-05-22T10:14:46;97671.03;;;28.23;56.29
19751;BME280;4663;49.120;9.730;2023-05-22T10:17:11;97673.09;;;28.07;56.78
19751;BME280;4663;49.120;9.730;2023-05-22T10:19:39;97668.00;;;28.25;56.41
19751;BME280;4663;49.120;9.730;2023-05-22T10:22:05;97661.66;;;27.79;56.58
19751;BME280;4663;49.120;9.730;2023-05-22T10:24:31;97671.69;;;28.10;57.85
19751;BME280;4663;49.120;9.730;2023-05-22T10:26:58;97665.16;;;27.95;57.72
19751;BME280;4663;49.120;9.730;2023-05-22T10:29:28;97671.53;;;28.36;56.88
19751;BME280;4663;49.120;9.730;2023-05-22T10:35:24;97665.78;;;27.71;57.50
19751;BME280;4663;49.120;9.730;2023-05-22T10:37:54;97679.38;;;28.13;58.89
19751;BME280;4663;49.120;9.730;2023-05-22T10:40:25;97674.63;;;28.69;57.24
19751;BME280;4663;49.120;9.730;2023-05-22T10:43:02;97666.53;;;27.93;57.94
19751;BME280;4663;49.120;9.730;2023-05-22T10:45:28;97673.28;;;28.21;58.92
19751;BME280;4663;49.120;9.730;2023-05-22T10:48:01;97672.13;;;28.28;58.85
19751;BME280;4663;49.120;9.730;2023-05-22T10:50:27;97651.56;;;28.09;57.09
19751;BME280;4663;49.120;9.730;2023-05-22T10:55:54;97650.19;;;28.07;56.91
19751;BME280;4663;49.120;9.730;2023-05-22T10:58:35;97653.50;;;27.48;58.29
19751;BME280;4663;49.120;9.730;2023-05-22T11:01:10;97661.25;;;27.35;58.29
19751;BME280;4663;49.120;9.730;2023-05-22T11:06:39;97648.31;;;27.31;58.35
19751;BME280;4663;49.120;9.730;2023-05-22T11:12:15;97648.72;;;27.64;58.18
19751;BME280;4663;49.120;9.730;2023-05-22T11:20:10;97636.75;;;27.29;58.16
19751;BME280;4663;49.120;9.730;2023-05-22T11:22:39;97646.72;;;27.14;59.59
19751;BME280;4663;49.120;9.730;2023-05-22T11:25:16;97643.63;;;27.26;59.38
19751;BME280;4663;49.120;9.730;2023-05-22T11:27:42;97625.06;;;27.73;57.25
19751;BME280;4663;49.120;9.730;2023-05-22T11:30:08;97644.34;;;27.63;58.26
19751;BME280;4663;49.120;9.730;2023-05-22T11:32:35;97650.56;;;27.90;59.57
19751;BME280;4663;49.120;9.730;2023-05-22T11:35:00;97647.97;;;27.53;60.09
19751;BME280;4663;49.120;9.730;2023-05-22T11:37:27;97628.38;;;27.65;58.70
19751;BME280;4663;49.120;9.730;2023-05-22T11:39:59;97610.34;;;27.28;56.09
19751;BME280;4663;49.120;9.730;2023-05-22T11:42:25;97628.25;;;27.04;58.09
19751;BME280;4663;49.120;9.730;2023-05-22T11:44:50;97620.19;;;27.44;56.66
19751;BME280;4663;49.120;9.730;2023-05-22T11:47:15;97616.41;;;27.30;57.78
19751;BME280;4663;49.120;9.730;2023-05-22T11:49:41;97614.22;;;27.11;57.06
19751;BME280;4663;49.120;9.730;2023-05-22T11:52:08;97611.25;;;27.79;57.40
19751;BME280;4663;49.120;9.730;2023-05-22T11:54:33;97614.59;;;27.60;57.66
19751;BME280;4663;49.120;9.730;2023-05-22T11:56:59;97615.34;;;27.81;57.68
19751;BME280;4663;49.120;9.730;2023-05-22T11:59:25;97616.66;;;27.94;57.83
19751;BME280;4663;49.120;9.730;2023-05-22T12:01:51;97612.88;;;27.80;57.15
19751;BME280;4663;49.120;9.730;2023-05-22T12:04:16;97584.78;;;27.83;54.94
19751;BME280;4663;49.120;9.730;2023-05-22T12:06:42;97604.38;;;28.21;57.14
19751;BME280;4663;49.120;9.730;2023-05-22T12:09:08;97611.75;;;28.26;56.92
19751;BME280;4663;49.120;9.730;2023-05-22T12:11:34;97601.31;;;27.83;56.03
19751;BME280;4663;49.120;9.730;2023-05-22T12:14:04;97611.06;;;28.10;56.56
19751;BME280;4663;49.120;9.730;2023-05-22T12:16:35;97617.75;;;27.27;59.00
19751;BME280;4663;49.120;9.730;2023-05-22T12:19:07;97574.84;;;27.26;53.25
19751;BME280;4663;49.120;9.730;2023-05-22T12:21:33;97568.97;;;27.43;53.07
19751;BME280;4663;49.120;9.730;2023-05-22T12:24:04;97593.72;;;27.54;55.43
19751;BME280;4663;49.120;9.730;2023-05-22T12:26:31;97619.16;;;27.30;59.86
19751;BME280;4663;49.120;9.730;2023-05-22T12:28:57;97597.97;;;27.25;57.08
19751;BME280;4663;49.120;9.730;2023-05-22T12:31:23;97597.75;;;27.67;57.71
19751;BME280;4663;49.120;9.730;2023-05-22T12:33:52;97574.31;;;27.19;54.72
19751;BME280;4663;49.120;9.730;2023-05-22T12:36:17;97604.03;;;27.22;57.86
19751;BME280;4663;49.120;9.730;2023-05-22T12:38:42;97611.19;;;27.07;59.88
19751;BME280;4663;49.120;9.730;2023-05-22T12:41:08;97616.84;;;27.58;61.33
19751;BME280;4663;49.120;9.730;2023-05-22T12:43:33;97599.91;;;27.19;59.56
19751;BME280;4663;49.120;9.730;2023-05-22T12:45:59;97613.97;;;26.87;60.54
19751;BME280;4663;49.120;9.730;2023-05-22T12:48:25;97612.53;;;27.31;62.47
19751;BME280;4663;49.120;9.730;2023-05-22T12:50:50;97620.53;;;27.22;63.82
19751;BME280;4663;49.120;9.730;2023-05-22T12:53:16;97594.97;;;27.21;59.61
19751;BME280;4663;49.120;9.730;2023-05-22T12:55:42;97575.19;;;27.75;55.07
19751;BME280;4663;49.120;9.730;2023-05-22T12:58:07;97576.28;;;27.69;54.77
19751;BME280;4663;49.120;9.730;2023-05-22T13:00:33;97603.91;;;27.53;58.98
19751;BME280;4663;49.120;9.730;2023-05-22T13:02:59;97582.69;;;27.59;59.01
19751;BME280;4663;49.120;9.730;2023-05-22T13:05:25;97584.78;;;27.17;58.60
19751;BME280;4663;49.120;9.730;2023-05-22T13:07:50;97599.81;;;27.40;61.85
19751;BME280;4663;49.120;9.730;2023-05-22T13:10:16;97588.81;;;27.40;59.78
19751;BME280;4663;49.120;9.730;2023-05-22T13:12:41;97592.19;;;27.11;61.84
19751;BME280;4663;49.120;9.730;2023-05-22T13:15:09;97592.13;;;27.42;60.97
19751;BME280;4663;49.120;9.730;2023-05-22T13:17:36;97592.25;;;26.90;61.02
19751;BME280;4663;49.120;9.730;2023-05-22T13:20:02;97582.91;;;26.91;61.43
19751;BME280;4663;49.120;9.730;2023-05-22T13:22:28;97591.03;;;27.38;63.97
19751;BME280;4663;49.120;9.730;2023-05-22T13:24:53;97580.72;;;26.83;62.34
19751;BME280;4663;49.120;9.730;2023-05-22T13:27:19;97593.69;;;26.56;65.79
19751;BME280;4663;49.120;9.730;2023-05-22T13:29:44;97583.47;;;26.78;65.16
19751;BME280;4663;49.120;9.730;2023-05-22T13:32:11;97590.09;;;26.56;65.57
19751;BME280;4663;49.120;9.730;2023-05-22T13:34:37;97586.22;;;26.31;66.21
19751;BME280;4663;49.120;9.730;2023-05-22T13:37:03;97582.38;;;26.22;66.75
19751;BME280;4663;49.120;9.730;2023-05-22T13:39:28;97572.22;;;26.38;67.00